• Join FlightAware (Why Join?)
  • Login
  • US Flag 
05:43PM EDT


 

Airport Tracker/Info


-or-


 

Live Flight TrackerFlight Track Log ✈ CTL22 ✈ 14-May-2013 ✈ KBKL - KGRR

Flight Track Log - Related Links

Times and Time Zones

All times are in EDT time to prevent confusion due to time zone crossing. See the CTL22 flight status page for this flight to view local times or setup timezone preferences in your user account.

Time Position Orientation Groundspeed Altitude Reporting Facility
EDT Latitude Longitude Course Direction KTS MPH feet Rate Location/Type
09:38PM 41.5519 -81.7319 328° Northwest 166 191 2,000  Level Cleveland Center
09:39PM 41.5764 -81.7878 300° West 179 206 2,000 480 Level Cleveland Center
09:40PM 41.5986 -81.8381 301° West 147 169 3,000 840 Climbing Cleveland Center
09:41PM 41.6211 -81.8831 304° West 132 152 3,700 720 Climbing Cleveland Center
09:43PM 41.6372 -81.9250 297° West 126 145 4,600 720 Climbing Cleveland Center
09:44PM 41.6556 -81.9700 299° West 120 138 5,300 600 Climbing Cleveland Center
09:45PM 41.6717 -82.0119 297° West 121 139 5,900 180 Climbing Cleveland Center
09:47PM 41.7122 -82.0964 303° West 147 169 6,000  Climbing Cleveland Center
09:48PM 41.7325 -82.1442 300° West 145 167 6,000  Level Cleveland Center
09:49PM 41.7528 -82.1919 300° West 149 171 6,000  Level Cleveland Center
09:50PM 41.7769 -82.2369 306° West 147 169 6,000  Level Cleveland Center
09:51PM 41.8111 -82.3272 297° West 146 168 6,000  Level Cleveland Center
09:52PM 41.8336 -82.3611 312° West 149 171 6,000  Level Cleveland Center
09:53PM 41.8536 -82.4064 301° West 149 171 6,000  Level Cleveland Center
09:54PM 41.8678 -82.4347 304° West 146 168 6,100  Climbing Cleveland Center
09:55PM 41.8939 -82.4939 301° West 143 165 6,100 -60 Level Cleveland Center
09:56PM 41.9142 -82.5336 304° West 145 167 6,000  Descending Cleveland Center
09:57PM 41.9342 -82.5761 302° West 144 166 6,100  Climbing Cleveland Center
09:58PM 41.9564 -82.6214 303° West 145 167 6,100 -60 Level Cleveland Center
09:59PM 41.9828 -82.6642 310° West 147 169 6,000 -60 Descending Cleveland Center
10:00PM 42.0089 -82.7239 300° West 142 163 6,000  Level Cleveland Center
10:01PM 42.0331 -82.7692 306° West 145 167 6,000  Level Cleveland Center
10:02PM 42.0569 -82.8233 301° West 145 167 6,100  Climbing Cleveland Center
10:03PM 42.0667 -82.8544 293° West 144 166 6,000 -120 Descending Cleveland Center
10:04PM 42.0844 -82.8997 298° West 144 166 6,000  Level Cleveland Center
10:06PM 42.1122 -82.9736 297° West 147 169 6,100  Climbing Cleveland Center
10:07PM 42.1319 -83.0219 299° West 147 169 6,100 -120 Level Cleveland Center
10:07PM 42.1461 -83.0506 304° West 147 169 6,000  Descending Cleveland Center
10:08PM 42.1636 -83.1017 295° West 145 167 6,100  Climbing Cleveland Center
10:09PM 42.1814 -83.1472 298° West 146 168 6,000  Descending Cleveland Center
10:10PM 42.1950 -83.1953 291° West 147 169 6,100  Climbing Cleveland Center
10:11PM 42.2144 -83.2578 293° West 144 166 6,000  Descending Cleveland Center
10:12PM 42.2319 -83.3119 294° West 138 159 6,100  Climbing Cleveland Center
10:14PM 42.2472 -83.3658 291° West 140 161 6,000 -60 Descending Cleveland Center
10:15PM 42.2647 -83.4200 294° West 141 162 6,000  Level Cleveland Center
10:15PM 42.2744 -83.4511 293° West 140 161 6,000 60 Level Cleveland Center
10:16PM 42.2900 -83.4939 296° West 142 163 6,100  Climbing Cleveland Center
10:17PM 42.3056 -83.5397 295° West 143 165 6,100  Level Cleveland Center
10:22PM 42.3889 -83.7906 294° West 145 167 6,100 -60 Level Chicago Center
10:23PM 42.4089 -83.8369 300° West 144 166 6,000 -60 Descending Chicago Center
10:24PM 42.4217 -83.8853 290° West 141 162 6,000  Level Chicago Center
10:25PM 42.4356 -83.9319 292° West 136 157 6,100  Climbing Chicago Center
10:26PM 42.4497 -83.9783 292° West 134 154 6,000 -60 Descending Chicago Center
10:28PM 42.4636 -84.0256 292° West 136 157 6,000  Level Chicago Center
10:29PM 42.4817 -84.0706 299° West 137 158 6,000  Level Chicago Center
10:30PM 42.4986 -84.1189 295° West 141 162 6,000  Level Chicago Center
10:31PM 42.5142 -84.1689 293° West 144 166 6,000  Level Chicago Center
10:32PM 42.5278 -84.2181 291° West 140 161 6,000  Level Chicago Center
10:33PM 42.5506 -84.2742 299° West 143 165 6,000  Level Chicago Center
10:34PM 42.5675 -84.3247 294° West 147 169 6,000  Level Chicago Center
10:35PM 42.5850 -84.3792 294° West 155 178 6,000  Level Chicago Center
10:36PM 42.6025 -84.4308 295° West 154 177 6,000  Level Chicago Center
10:37PM 42.6158 -84.4842 299° West 151 174 6,000  Level Chicago Center
10:38PM 42.6303 -84.5372 290° West 150 173 6,000  Level Chicago Center
10:39PM 42.6444 -84.5936 289° West 156 180 6,000  Level Chicago Center
10:40PM 42.6581 -84.6469 289° West 153 176 6,000  Level Chicago Center
10:41PM 42.6700 -84.7011 287° West 151 174 6,100  Climbing Chicago Center
10:42PM 42.6875 -84.7678 290° West 156 180 6,000 -60 Descending Chicago Center
10:43PM 42.7006 -84.8217 288° West 152 175 6,000  Level Chicago Center
10:44PM 42.7153 -84.8742 291° West 150 173 6,000  Level Chicago Center
10:45PM 42.7294 -84.9275 290° West 150 173 6,000 -300 Level Chicago Center
10:46PM 42.7450 -84.9825 291° West 154 177 5,500 -660 Descending Chicago Center
10:47PM 42.7617 -85.0444 290° West 169 194 4,700 -840 Descending Chicago Center
10:48PM 42.7797 -85.1083 291° West 178 205 3,800 -840 Descending Chicago Center
10:49PM 42.7994 -85.1717 293° West 180 207 3,100 -660 Descending Chicago Center
10:50PM 42.8167 -85.2361 290° West 181 208 2,500 -300 Descending Chicago Center
10:51PM 42.8361 -85.3061 291° West 171 197 2,500 -240 Level Chicago Center
10:52PM 42.8528 -85.3619 292° West 162 186 2,100 -360 Descending Chicago Center
10:53PM 42.8658 -85.4194 287° West 160 184 1,800 -480 Descending Chicago Center
10:54PM 42.8789 -85.4783 287° West 162 186 1,200 -600 Descending Chicago Center
10:56PM 42.8667 -85.5167 270° West  Level FlightAware Approximate
11:03PM 42.8808 -85.5228 270° West  Level Estimated